createdAt,value
2023-05-09T00:00:49.937Z,19.83
2023-05-09T00:03:16.700Z,18.50
2023-05-09T00:05:43.712Z,19.77
2023-05-09T00:08:11.057Z,19.65
2023-05-09T00:10:37.868Z,16.65
2023-05-09T00:13:04.594Z,22.95
2023-05-09T00:15:32.052Z,16.10
2023-05-09T00:17:59.436Z,21.50
2023-05-09T00:20:26.300Z,15.77
2023-05-09T00:22:52.939Z,22.70
2023-05-09T00:25:19.600Z,17.55
2023-05-09T00:27:46.281Z,21.60
2023-05-09T00:30:13.173Z,17.90
2023-05-09T00:32:41.359Z,19.17
2023-05-09T00:35:10.029Z,19.15
2023-05-09T00:37:37.056Z,20.23
2023-05-09T00:40:07.499Z,17.10
2023-05-09T00:42:34.160Z,20.58
2023-05-09T00:45:01.372Z,21.30
2023-05-09T00:47:29.403Z,18.25
2023-05-09T00:49:59.578Z,18.48
2023-05-09T00:52:26.670Z,21.83
2023-05-09T00:54:55.521Z,19.92
2023-05-09T00:57:23.292Z,21.70
2023-05-09T00:59:50.407Z,27.83
2023-05-09T01:02:18.438Z,27.85
2023-05-09T01:04:46.400Z,22.15
2023-05-09T01:07:41.457Z,19.80
2023-05-09T01:10:59.807Z,23.90
2023-05-09T01:13:35.769Z,21.77
2023-05-09T01:16:31.237Z,22.75
2023-05-09T01:19:37.506Z,19.33
2023-05-09T01:22:08.770Z,23.50
2023-05-09T01:25:32.519Z,18.25
2023-05-09T01:28:41.305Z,25.42
2023-05-09T01:31:09.657Z,22.33
2023-05-09T01:33:40.869Z,23.13
2023-05-09T01:36:17.277Z,32.67
2023-05-09T01:38:46.412Z,28.92
2023-05-09T01:41:16.726Z,25.15
2023-05-09T01:43:46.037Z,25.60
2023-05-09T01:46:17.111Z,37.75
2023-05-09T01:48:45.509Z,42.00
2023-05-09T01:51:15.023Z,35.17
2023-05-09T01:53:43.251Z,38.53
2023-05-09T01:56:12.638Z,41.58
2023-05-09T01:58:41.328Z,46.38
2023-05-09T02:05:37.931Z,47.75
2023-05-09T02:08:05.132Z,43.45
2023-05-09T02:10:34.173Z,49.38
2023-05-09T02:13:01.023Z,54.45
2023-05-09T02:15:29.527Z,49.35
2023-05-09T02:17:56.690Z,46.78
2023-05-09T02:20:23.431Z,45.03
2023-05-09T02:22:50.847Z,51.17
2023-05-09T02:25:18.558Z,51.47
2023-05-09T02:27:46.775Z,52.10
2023-05-09T02:30:25.262Z,56.05
2023-05-09T02:32:59.816Z,50.45
2023-05-09T02:35:28.136Z,49.38
2023-05-09T02:37:56.976Z,49.88
2023-05-09T02:40:26.254Z,49.72
2023-05-09T02:42:53.938Z,47.95
2023-05-09T02:45:21.667Z,51.13
2023-05-09T02:47:48.350Z,49.60
2023-05-09T02:50:15.238Z,47.90
2023-05-09T02:52:42.693Z,54.78
2023-05-09T02:55:09.796Z,52.63
2023-05-09T02:57:39.286Z,55.42
2023-05-09T03:00:10.232Z,50.67
2023-05-09T03:02:38.171Z,49.83
2023-05-09T03:05:09.630Z,49.85
2023-05-09T03:07:36.926Z,56.05
2023-05-09T03:10:04.511Z,48.95
2023-05-09T03:12:31.642Z,53.17
2023-05-09T03:14:58.474Z,56.33
2023-05-09T03:17:25.559Z,51.47
2023-05-09T03:19:52.243Z,48.40
2023-05-09T03:22:20.573Z,54.80
2023-05-09T03:24:54.939Z,51.55
2023-05-09T03:27:21.581Z,45.85
2023-05-09T03:29:49.956Z,47.40
2023-05-09T03:32:18.363Z,53.50
2023-05-09T03:34:48.101Z,44.50
2023-05-09T03:37:14.866Z,48.38
2023-05-09T03:39:42.684Z,45.17
2023-05-09T03:42:09.446Z,43.65
2023-05-09T03:44:36.357Z,43.20
2023-05-09T03:47:03.216Z,41.67
2023-05-09T03:49:36.353Z,44.13
2023-05-09T03:52:03.985Z,45.90
2023-05-09T03:54:31.174Z,44.15
2023-05-09T03:56:57.828Z,39.10
2023-05-09T03:59:24.498Z,44.88
2023-05-09T04:01:51.402Z,44.03
2023-05-09T04:04:19.236Z,43.13
2023-05-09T04:06:46.806Z,41.53
2023-05-09T04:09:16.226Z,39.58
2023-05-09T04:11:42.936Z,41.17
2023-05-09T04:14:11.888Z,42.17
2023-05-09T04:16:38.666Z,42.15
2023-05-09T04:19:07.088Z,40.85
2023-05-09T04:21:35.215Z,38.60
2023-05-09T04:24:03.306Z,37.92
2023-05-09T04:26:38.317Z,38.65
2023-05-09T04:29:07.727Z,40.60
2023-05-09T04:31:35.191Z,42.03
2023-05-09T04:34:03.428Z,40.53
2023-05-09T04:36:33.830Z,37.35
2023-05-09T04:39:00.748Z,38.88
2023-05-09T04:41:28.694Z,40.05
2023-05-09T04:43:55.762Z,40.80
2023-05-09T04:46:25.843Z,31.73
2023-05-09T04:48:52.834Z,36.80
2023-05-09T04:51:20.468Z,32.05
2023-05-09T04:53:47.162Z,30.27
2023-05-09T04:56:15.481Z,29.95
2023-05-09T04:58:43.588Z,29.73
2023-05-09T05:01:11.435Z,28.60
2023-05-09T05:03:39.228Z,29.30
2023-05-09T05:06:06.665Z,31.48
2023-05-09T05:08:34.203Z,29.00
2023-05-09T05:11:00.958Z,27.48
2023-05-09T05:13:28.272Z,26.45
2023-05-09T05:15:58.887Z,26.73
2023-05-09T05:18:25.924Z,30.10
2023-05-09T05:20:53.603Z,26.77
2023-05-09T05:23:20.815Z,29.38
2023-05-09T05:25:49.517Z,27.45
2023-05-09T05:28:16.876Z,31.35
2023-05-09T05:30:44.415Z,27.25
2023-05-09T05:33:11.475Z,26.83
2023-05-09T05:35:38.394Z,27.17
2023-05-09T05:38:05.061Z,26.70
2023-05-09T05:40:31.730Z,25.27
2023-05-09T05:43:01.871Z,26.85
2023-05-09T05:45:30.974Z,24.48
2023-05-09T05:47:59.234Z,28.52
2023-05-09T05:50:26.095Z,24.45
2023-05-09T05:52:53.881Z,22.85
2023-05-09T05:55:20.630Z,21.85
2023-05-09T05:57:48.579Z,23.20
2023-05-09T06:00:16.751Z,22.20
2023-05-09T06:02:48.234Z,26.23
2023-05-09T06:05:22.748Z,22.55
2023-05-09T06:07:50.738Z,23.02
2023-05-09T06:10:17.432Z,27.25
2023-05-09T06:12:45.539Z,20.77
2023-05-09T06:15:12.965Z,21.98
2023-05-09T06:17:43.720Z,24.05
2023-05-09T06:20:10.851Z,20.50
2023-05-09T06:22:38.295Z,23.20
2023-05-09T06:25:06.898Z,25.73
2023-05-09T06:27:34.872Z,21.65
2023-05-09T06:30:08.325Z,21.75
2023-05-09T06:32:41.320Z,22.35
2023-05-09T06:35:08.236Z,25.02
2023-05-09T06:37:35.066Z,19.38
2023-05-09T06:40:01.913Z,24.30
2023-05-09T06:42:30.082Z,21.48
2023-05-09T06:44:56.824Z,25.80
2023-05-09T06:47:23.544Z,24.13
2023-05-09T06:49:50.380Z,20.63
2023-05-09T06:52:17.079Z,24.17
2023-05-09T06:54:43.803Z,25.60
2023-05-09T06:57:12.556Z,23.13
2023-05-09T06:59:39.245Z,23.38
2023-05-09T07:02:08.744Z,20.88
2023-05-09T07:04:35.544Z,18.30
2023-05-09T07:07:02.394Z,19.30
2023-05-09T07:09:29.093Z,16.42
2023-05-09T07:11:55.939Z,19.50
2023-05-09T07:14:22.702Z,18.67
2023-05-09T07:16:49.505Z,28.25
2023-05-09T07:19:16.314Z,19.92
2023-05-09T07:21:43.101Z,20.55
2023-05-09T07:24:09.826Z,25.20
2023-05-09T07:26:36.706Z,17.55
2023-05-09T07:29:04.002Z,18.35
2023-05-09T07:31:31.046Z,18.52
2023-05-09T07:33:57.924Z,18.60
2023-05-09T07:36:24.711Z,17.30
2023-05-09T07:38:52.721Z,15.65
2023-05-09T07:41:19.809Z,14.18
2023-05-09T07:43:46.537Z,17.38
2023-05-09T07:46:13.350Z,14.73
2023-05-09T07:48:40.204Z,13.85
2023-05-09T07:51:06.957Z,13.45
2023-05-09T07:53:33.695Z,14.15
2023-05-09T07:56:00.740Z,13.50
2023-05-09T07:58:27.536Z,15.05
2023-05-09T08:00:56.850Z,11.73
2023-05-09T08:03:23.686Z,11.00
2023-05-09T08:05:55.780Z,10.13
2023-05-09T08:08:23.309Z,11.32
2023-05-09T08:10:49.981Z,11.05
2023-05-09T08:13:16.878Z,9.95
2023-05-09T08:15:43.714Z,11.30
2023-05-09T08:18:10.584Z,9.98
2023-05-09T08:20:37.493Z,7.60
2023-05-09T08:23:04.406Z,7.93
2023-05-09T08:25:31.431Z,7.88
2023-05-09T08:27:58.274Z,6.25
2023-05-09T08:30:25.119Z,11.90
2023-05-09T08:32:51.870Z,8.68
2023-05-09T08:35:18.731Z,6.05
2023-05-09T08:37:47.780Z,5.70
2023-05-09T08:40:15.130Z,4.85
2023-05-09T08:42:44.457Z,4.80
2023-05-09T08:45:16.289Z,6.00
2023-05-09T08:47:43.108Z,8.68
2023-05-09T08:50:11.649Z,7.30
2023-05-09T08:52:38.700Z,5.57
2023-05-09T08:55:06.258Z,4.65
2023-05-09T08:57:35.278Z,5.55
2023-05-09T09:00:05.814Z,5.05
2023-05-09T09:02:33.975Z,4.63
2023-05-09T09:05:02.283Z,6.00
2023-05-09T09:07:31.254Z,4.63
2023-05-09T09:09:59.306Z,5.97
2023-05-09T09:12:26.596Z,4.13
2023-05-09T09:14:55.600Z,3.75
2023-05-09T09:17:29.616Z,6.43
2023-05-09T09:20:04.175Z,5.72
2023-05-09T09:22:34.179Z,6.45
2023-05-09T09:25:02.068Z,3.65
2023-05-09T09:27:28.927Z,3.75
2023-05-09T09:32:48.624Z,3.03
2023-05-09T09:38:00.260Z,3.40
2023-05-09T09:40:27.069Z,3.78
2023-05-09T09:42:53.832Z,3.17
2023-05-09T09:45:20.839Z,7.22
2023-05-09T09:47:50.225Z,5.30
2023-05-09T09:50:20.203Z,6.78
2023-05-09T09:52:52.633Z,3.33
2023-05-09T09:55:21.294Z,3.25
2023-05-09T09:57:51.687Z,4.38
2023-05-09T10:00:26.067Z,2.58
2023-05-09T10:02:56.299Z,2.90
2023-05-09T10:05:25.817Z,2.78
2023-05-09T10:08:00.352Z,3.55
2023-05-09T10:10:32.180Z,2.78
2023-05-09T10:13:12.001Z,2.58
2023-05-09T10:15:52.410Z,2.45
2023-05-09T10:18:33.703Z,4.25
2023-05-09T10:21:06.398Z,3.65
2023-05-09T10:23:37.674Z,4.25
2023-05-09T10:26:22.822Z,4.25
2023-05-09T10:28:54.736Z,3.58
2023-05-09T10:31:29.281Z,3.22
2023-05-09T10:33:57.144Z,3.53
2023-05-09T10:36:24.298Z,4.90
2023-05-09T10:38:55.497Z,5.65
2023-05-09T10:41:23.644Z,3.60
2023-05-09T10:43:50.518Z,3.08
2023-05-09T10:46:17.938Z,4.10
2023-05-09T10:48:45.614Z,4.30
2023-05-09T10:51:13.232Z,3.85
2023-05-09T10:53:49.232Z,3.20
2023-05-09T10:56:26.936Z,7.53
2023-05-09T10:58:54.588Z,5.03
2023-05-09T11:01:39.667Z,4.90
2023-05-09T11:04:17.339Z,3.42
2023-05-09T11:06:51.845Z,3.22
2023-05-09T11:09:39.144Z,3.40
2023-05-09T11:12:06.097Z,3.05
2023-05-09T11:14:47.503Z,3.67
2023-05-09T11:17:23.498Z,2.92
2023-05-09T11:19:50.316Z,2.40
2023-05-09T11:22:21.815Z,2.70
2023-05-09T11:24:50.232Z,3.10
2023-05-09T11:27:21.040Z,3.35
2023-05-09T11:29:56.630Z,1.88
2023-05-09T11:32:44.893Z,1.98
2023-05-09T11:35:14.949Z,4.30
2023-05-09T11:37:55.203Z,4.97
2023-05-09T11:40:22.928Z,4.82
2023-05-09T11:42:58.077Z,4.28
2023-05-09T11:45:29.432Z,7.15
2023-05-09T11:48:00.525Z,2.78
2023-05-09T11:50:27.359Z,8.73
2023-05-09T11:52:54.384Z,5.70
2023-05-09T11:55:22.812Z,1.90
2023-05-09T11:57:54.742Z,4.00
2023-05-09T12:00:24.665Z,6.63
2023-05-09T12:02:53.465Z,4.53
2023-05-09T12:05:22.971Z,3.60
2023-05-09T12:07:50.905Z,7.03
2023-05-09T12:10:23.261Z,5.55
2023-05-09T12:12:53.056Z,5.75
2023-05-09T12:15:21.507Z,2.85
2023-05-09T12:18:01.898Z,8.45
2023-05-09T12:20:28.706Z,6.47
2023-05-09T12:22:55.856Z,4.72
2023-05-09T12:25:22.709Z,2.92
2023-05-09T12:27:49.533Z,7.68
2023-05-09T12:30:18.556Z,4.13
2023-05-09T12:32:46.658Z,11.07
2023-05-09T12:35:13.632Z,7.10
2023-05-09T12:37:40.494Z,7.95
2023-05-09T12:40:15.176Z,6.05
2023-05-09T12:42:46.075Z,5.57
2023-05-09T12:45:13.393Z,5.97
2023-05-09T12:47:41.924Z,4.65
2023-05-09T12:50:14.225Z,4.47
2023-05-09T12:52:50.638Z,2.65
2023-05-09T12:55:21.225Z,2.58
2023-05-09T12:58:00.705Z,4.70
2023-05-09T13:00:27.611Z,4.10
2023-05-09T13:02:54.603Z,5.57
2023-05-09T13:05:23.145Z,6.05
2023-05-09T13:07:54.634Z,5.65
2023-05-09T13:10:30.398Z,6.13
2023-05-09T13:12:57.294Z,7.47
2023-05-09T13:15:26.763Z,5.65
2023-05-09T13:17:54.349Z,5.88
2023-05-09T13:20:21.307Z,6.93
2023-05-09T13:22:48.068Z,7.90
2023-05-09T13:25:16.020Z,8.88
2023-05-09T13:27:42.652Z,7.82
2023-05-09T13:30:09.836Z,6.25
2023-05-09T13:32:36.956Z,8.07
2023-05-09T13:35:06.631Z,6.03
2023-05-09T13:37:34.969Z,7.18
2023-05-09T13:40:05.571Z,7.38
2023-05-09T13:42:34.454Z,7.03
2023-05-09T13:45:02.746Z,7.35
2023-05-09T13:47:29.445Z,6.00
2023-05-09T13:49:56.171Z,10.10
2023-05-09T13:52:23.194Z,8.70
2023-05-09T13:54:50.194Z,15.88
2023-05-09T13:57:19.557Z,9.77
2023-05-09T13:59:46.563Z,10.93
2023-05-09T14:02:13.319Z,7.30
2023-05-09T14:04:41.113Z,12.88
2023-05-09T14:07:09.495Z,9.68
2023-05-09T14:09:39.969Z,7.00
2023-05-09T14:12:07.068Z,8.02
2023-05-09T14:14:33.922Z,8.13
2023-05-09T14:17:01.392Z,10.20
2023-05-09T14:19:31.178Z,8.43
2023-05-09T14:21:57.955Z,7.93
2023-05-09T14:24:24.776Z,10.85
2023-05-09T14:26:51.533Z,18.10
2023-05-09T14:29:18.191Z,9.73
2023-05-09T14:31:44.918Z,19.10
2023-05-09T14:34:11.584Z,16.88
2023-05-09T14:36:38.266Z,0.00
2023-05-09T14:39:06.093Z,0.50
2023-05-09T14:41:32.805Z,0.00
2023-05-09T14:43:59.563Z,0.10
2023-05-09T14:46:26.247Z,0.00
2023-05-09T14:48:53.066Z,0.38
2023-05-09T14:51:19.962Z,0.00
2023-05-09T14:53:47.222Z,0.00
2023-05-09T14:56:14.326Z,0.00
2023-05-09T14:58:41.019Z,0.00
2023-05-09T15:01:07.815Z,0.00
2023-05-09T15:03:34.589Z,0.20
2023-05-09T15:06:01.733Z,0.00
2023-05-09T15:08:28.689Z,0.00
2023-05-09T15:10:56.653Z,0.00
2023-05-09T15:13:23.831Z,0.00
2023-05-09T15:15:50.649Z,0.00
2023-05-09T15:18:18.451Z,0.00
2023-05-09T15:20:45.281Z,0.00
2023-05-09T15:23:13.171Z,0.00
2023-05-09T15:25:43.182Z,0.00
2023-05-09T15:28:09.963Z,0.00
2023-05-09T15:30:38.822Z,0.00
2023-05-09T15:33:05.770Z,0.00
2023-05-09T15:35:32.547Z,0.00
2023-05-09T15:37:59.876Z,0.00
2023-05-09T15:40:27.976Z,0.00
2023-05-09T15:42:54.685Z,0.00
2023-05-09T15:45:21.394Z,0.00
2023-05-09T15:47:48.309Z,0.00
2023-05-09T15:50:17.599Z,0.00
2023-05-09T15:52:44.531Z,0.00
2023-05-09T15:55:12.912Z,0.00
2023-05-09T15:57:39.728Z,0.00
2023-05-09T16:00:07.312Z,0.00
2023-05-09T16:02:39.292Z,0.00
2023-05-09T16:05:06.575Z,0.00
2023-05-09T16:07:35.310Z,0.00
2023-05-09T16:10:02.682Z,0.00
2023-05-09T16:12:32.767Z,0.00
2023-05-09T16:15:00.577Z,0.00
2023-05-09T16:17:27.804Z,0.00
2023-05-09T16:19:55.612Z,0.00
2023-05-09T16:22:22.614Z,0.00
2023-05-09T16:24:49.514Z,0.00
2023-05-09T16:27:16.868Z,0.25
2023-05-09T16:29:43.831Z,0.00
2023-05-09T16:32:11.212Z,0.00
2023-05-09T16:34:38.076Z,0.00
2023-05-09T16:37:04.970Z,0.00
2023-05-09T16:39:32.306Z,0.00
2023-05-09T16:41:59.540Z,0.00
2023-05-09T16:44:26.548Z,0.00
2023-05-09T16:46:53.356Z,0.00
2023-05-09T16:49:20.147Z,0.00
2023-05-09T16:51:47.319Z,0.00
2023-05-09T16:54:14.327Z,0.00
2023-05-09T16:56:42.239Z,0.25
2023-05-09T16:59:08.932Z,4.07
2023-05-09T17:01:35.695Z,0.10
2023-05-09T17:04:02.751Z,0.00
2023-05-09T17:06:29.624Z,0.20
2023-05-09T17:08:56.377Z,0.10
2023-05-09T17:11:23.254Z,0.00
2023-05-09T17:13:50.054Z,0.25
2023-05-09T17:16:16.861Z,0.00
2023-05-09T17:18:47.308Z,0.00
2023-05-09T17:21:15.603Z,0.00
2023-05-09T17:23:42.812Z,0.00
2023-05-09T17:26:09.612Z,0.00
2023-05-09T17:28:36.911Z,0.00
2023-05-09T17:31:03.943Z,0.00
2023-05-09T17:33:30.778Z,0.00
2023-05-09T17:35:57.459Z,0.00
2023-05-09T17:38:24.334Z,0.00
2023-05-09T17:40:51.068Z,0.00
2023-05-09T17:43:17.800Z,0.00
2023-05-09T17:45:45.943Z,0.00
2023-05-09T17:48:13.481Z,0.00
2023-05-09T17:50:40.216Z,0.00
2023-05-09T17:53:08.749Z,0.00
2023-05-09T17:55:36.057Z,0.05
2023-05-09T17:58:02.860Z,0.00
2023-05-09T18:00:29.747Z,0.00
2023-05-09T18:03:00.261Z,0.00
2023-05-09T18:05:27.880Z,0.00
2023-05-09T18:07:54.720Z,0.00
2023-05-09T18:10:21.545Z,0.00
2023-05-09T18:12:48.421Z,11.98
2023-05-09T18:15:15.282Z,0.00
2023-05-09T18:17:42.100Z,0.00
2023-05-09T18:20:09.350Z,0.00
2023-05-09T18:22:37.312Z,0.00
2023-05-09T18:25:04.448Z,0.00
2023-05-09T18:27:32.239Z,0.00
2023-05-09T18:29:58.947Z,0.00
2023-05-09T18:32:25.802Z,0.00
2023-05-09T18:34:52.608Z,0.00
2023-05-09T18:37:19.441Z,0.00
2023-05-09T18:39:46.197Z,0.00
2023-05-09T18:42:16.036Z,0.00
2023-05-09T18:44:43.221Z,0.00
2023-05-09T18:47:10.068Z,0.00
2023-05-09T18:49:37.893Z,0.00
2023-05-09T18:52:04.898Z,0.00
2023-05-09T18:54:31.618Z,0.00
2023-05-09T18:56:58.507Z,0.00
2023-05-09T18:59:25.270Z,0.00
2023-05-09T19:01:52.205Z,0.00
2023-05-09T19:04:19.755Z,0.00
2023-05-09T19:06:47.241Z,0.00
2023-05-09T19:09:13.985Z,0.00
2023-05-09T19:11:40.709Z,0.00
2023-05-09T19:14:07.543Z,0.00
2023-05-09T19:16:34.352Z,0.00
2023-05-09T19:19:01.357Z,0.00
2023-05-09T19:21:28.362Z,0.00
2023-05-09T19:23:55.086Z,0.00
2023-05-09T19:26:22.001Z,0.00
2023-05-09T19:28:48.781Z,0.00
2023-05-09T19:31:16.235Z,0.00
2023-05-09T19:33:45.508Z,0.00
2023-05-09T19:36:12.847Z,0.00
2023-05-09T19:38:40.200Z,0.00
2023-05-09T19:41:06.948Z,0.00
2023-05-09T19:43:33.692Z,0.00
2023-05-09T19:46:00.422Z,0.00
2023-05-09T19:48:27.376Z,0.00
2023-05-09T19:51:00.973Z,0.00
2023-05-09T19:53:27.768Z,0.00
2023-05-09T19:55:54.636Z,0.00
2023-05-09T19:58:21.462Z,0.00
2023-05-09T20:00:48.602Z,0.00
2023-05-09T20:03:15.529Z,0.00
2023-05-09T20:05:42.495Z,0.00
2023-05-09T20:08:09.542Z,0.00
2023-05-09T20:10:36.675Z,0.00
2023-05-09T20:13:04.463Z,0.00
2023-05-09T20:15:31.409Z,0.00
2023-05-09T20:17:58.588Z,0.00
2023-05-09T20:20:25.507Z,0.00
2023-05-09T20:22:52.266Z,0.00
2023-05-09T20:25:19.236Z,0.00
2023-05-09T20:27:45.956Z,0.00
2023-05-09T20:30:13.152Z,0.00
2023-05-09T20:32:40.513Z,0.00
2023-05-09T20:35:07.702Z,0.00
2023-05-09T20:37:34.544Z,0.10
2023-05-09T20:40:04.636Z,0.00
2023-05-09T20:42:31.423Z,0.00
2023-05-09T20:44:58.203Z,0.00
2023-05-09T20:47:25.183Z,0.00
2023-05-09T20:49:51.978Z,0.00
2023-05-09T20:52:18.729Z,0.00
2023-05-09T20:54:47.130Z,0.00
2023-05-09T20:57:13.882Z,0.00
2023-05-09T20:59:40.926Z,0.00
2023-05-09T21:02:08.319Z,0.00
2023-05-09T21:04:35.147Z,0.00
2023-05-09T21:07:01.840Z,0.00
2023-05-09T21:09:28.717Z,0.00
2023-05-09T21:11:55.452Z,0.00
2023-05-09T21:14:22.124Z,0.00
2023-05-09T21:16:49.179Z,0.00
2023-05-09T21:19:15.957Z,0.00
2023-05-09T21:21:42.721Z,0.00
2023-05-09T21:24:09.796Z,0.00
2023-05-09T21:26:36.702Z,0.00
2023-05-09T21:29:03.560Z,0.00
2023-05-09T21:31:33.345Z,0.00
2023-05-09T21:34:00.104Z,0.00
2023-05-09T21:36:26.804Z,0.00
2023-05-09T21:38:53.602Z,0.00
2023-05-09T21:41:21.842Z,0.00
2023-05-09T21:43:48.528Z,0.00
2023-05-09T21:46:15.297Z,0.00
2023-05-09T21:48:41.950Z,0.00
2023-05-09T21:51:08.940Z,0.00
2023-05-09T21:53:35.942Z,0.00
2023-05-09T21:56:02.645Z,0.00
2023-05-09T21:58:29.396Z,0.00
2023-05-09T22:00:56.034Z,0.00
2023-05-09T22:03:23.325Z,0.00
2023-05-09T22:05:50.196Z,0.00
2023-05-09T22:08:16.855Z,0.00
2023-05-09T22:10:43.575Z,0.00
2023-05-09T22:13:10.422Z,0.00
2023-05-09T22:15:37.248Z,0.00
2023-05-09T22:18:04.284Z,0.00
2023-05-09T22:20:31.169Z,0.00
2023-05-09T22:22:57.861Z,0.00
2023-05-09T22:25:24.693Z,0.00
2023-05-09T22:27:51.366Z,0.00
2023-05-09T22:30:18.282Z,0.00
2023-05-09T22:32:45.193Z,0.00
2023-05-09T22:35:12.440Z,0.00
2023-05-09T22:37:39.142Z,0.00
2023-05-09T22:40:09.241Z,0.00
2023-05-09T22:42:36.012Z,0.00
2023-05-09T22:45:02.813Z,0.00
2023-05-09T22:47:29.587Z,0.00
2023-05-09T22:49:56.374Z,0.30
2023-05-09T22:52:23.126Z,0.00
2023-05-09T22:54:49.809Z,0.00
2023-05-09T22:57:18.002Z,0.00
2023-05-09T22:59:45.338Z,0.00
2023-05-09T23:02:12.835Z,0.00
2023-05-09T23:04:39.576Z,0.00
2023-05-09T23:07:06.326Z,0.00
2023-05-09T23:09:33.120Z,0.00
2023-05-09T23:11:59.828Z,0.00
2023-05-09T23:14:26.737Z,0.00
2023-05-09T23:16:53.383Z,0.00
2023-05-09T23:19:20.029Z,0.00
2023-05-09T23:21:46.887Z,0.00
2023-05-09T23:24:13.615Z,0.00
2023-05-09T23:26:40.299Z,0.00
2023-05-09T23:29:06.974Z,0.25
2023-05-09T23:31:33.687Z,0.00
2023-05-09T23:34:00.402Z,0.00
2023-05-09T23:36:28.140Z,0.00
2023-05-09T23:38:54.884Z,0.00
2023-05-09T23:41:21.963Z,0.00
2023-05-09T23:43:48.678Z,0.00
2023-05-09T23:46:15.924Z,0.00
2023-05-09T23:48:42.715Z,0.00
2023-05-09T23:51:09.392Z,0.00
2023-05-09T23:53:36.084Z,0.00
2023-05-09T23:56:03.022Z,0.00
2023-05-09T23:58:29.772Z,0.00
